Time;durP1;ratioP1;P1;durP2;ratioP2;P2;SDS_P1;SDS_P2;PMS_P1;PMS_P2;Temp;Humidity;BMP_temperature;BMP_pressure;BME280_temperature;BME280_humidity;BME280_pressure;Samples;Min_cycle;Max_cycle;Signal;HPM_P1;HPM_P2
2023/05/15 00:00:48;;;;;;;139.90;62.17;;;;;;;19.57;50.72;101177.41;5019725;28;20052;-72
2023/05/15 00:03:13;;;;;;;152.63;65.28;;;;;;;19.57;50.85;101173.91;5035203;28;20028;-72
2023/05/15 00:05:39;;;;;;;150.90;63.30;;;;;;;19.57;51.45;101171.28;5032714;28;20056;-72
2023/05/15 00:08:04;;;;;;;152.23;66.10;;;;;;;19.56;51.69;101164.25;5034314;28;20116;-72
2023/05/15 00:10:29;;;;;;;145.55;63.72;;;;;;;19.56;52.06;101164.25;5035775;28;20028;-72
2023/05/15 00:12:55;;;;;;;140.07;62.78;;;;;;;19.54;51.88;101159.03;5036221;28;20486;-73
2023/05/15 00:15:20;;;;;;;143.10;62.65;;;;;;;19.55;51.86;101163.41;5019036;28;20025;-72
2023/05/15 00:17:45;;;;;;;144.13;63.45;;;;;;;19.55;51.55;101158.09;5030992;28;20108;-73
2023/05/15 00:20:11;;;;;;;139.63;61.10;;;;;;;19.55;51.69;101146.63;5018406;28;20031;-72
2023/05/15 00:22:36;;;;;;;138.55;63.55;;;;;;;19.54;52.04;101151.06;5010792;28;20112;-73
2023/05/15 00:25:02;;;;;;;138.48;63.63;;;;;;;19.54;52.12;101147.56;5033226;28;20052;-72
2023/05/15 00:27:27;;;;;;;138.80;62.17;;;;;;;19.53;51.81;101148.50;5050944;28;20027;-72
2023/05/15 00:29:53;;;;;;;152.30;63.90;;;;;;;19.53;51.81;101144.06;5032508;28;20082;-73
2023/05/15 00:32:18;;;;;;;150.15;77.72;;;;;;;19.53;52.27;101148.50;5023623;28;20032;-72
2023/05/15 00:34:43;;;;;;;154.93;74.55;;;;;;;19.52;52.02;101150.28;5014171;28;20532;-72
2023/05/15 00:37:09;;;;;;;146.18;68.32;;;;;;;19.51;52.81;101139.75;5031476;28;20021;-72
2023/05/15 00:39:35;;;;;;;144.75;68.90;;;;;;;19.50;52.19;101138.06;5012030;28;20371;-73
2023/05/15 00:42:01;;;;;;;149.38;78.65;;;;;;;19.51;52.60;101139.75;5017659;28;20029;-73
2023/05/15 00:44:27;;;;;;;144.52;73.32;;;;;;;19.51;53.41;101139.75;5012465;28;20021;-73
2023/05/15 00:46:53;;;;;;;151.82;76.55;;;;;;;19.51;52.60;101139.75;5033416;28;20083;-73
2023/05/15 00:49:19;;;;;;;136.05;66.70;;;;;;;19.50;53.08;101135.41;5029658;28;20017;-73
2023/05/15 00:51:44;;;;;;;141.30;65.38;;;;;;;19.50;53.16;101130.97;5039716;28;20391;-72
2023/05/15 00:54:10;;;;;;;173.18;72.25;;;;;;;19.49;52.99;101136.34;5025097;28;20028;-73
2023/05/15 00:56:36;;;;;;;145.45;65.93;;;;;;;19.50;53.58;101132.75;5028733;28;20022;-73
2023/05/15 00:59:05;;;;;;;147.68;68.90;;;;;;;19.49;53.47;101136.34;5034360;28;20028;-73
2023/05/15 01:01:33;;;;;;;144.15;67.68;;;;;;;19.48;54.12;101130.16;5017717;28;20025;-73
2023/05/15 01:03:59;;;;;;;146.50;64.20;;;;;;;19.48;53.96;101126.66;5034541;28;20107;-73
2023/05/15 01:06:24;;;;;;;148.88;72.35;;;;;;;19.47;54.43;101122.28;5033798;28;20024;-73
2023/05/15 01:08:50;;;;;;;156.98;91.53;;;;;;;19.47;53.89;101124.94;5017938;28;20112;-73
2023/05/15 01:11:16;;;;;;;156.85;71.32;;;;;;;19.45;54.25;101117.06;5015456;28;20970;-73
2023/05/15 01:13:42;;;;;;;148.57;75.03;;;;;;;19.46;54.17;101115.28;5028563;28;20034;-73
2023/05/15 01:16:08;;;;;;;154.80;71.40;;;;;;;19.45;53.94;101113.56;5031780;28;20079;-74
2023/05/15 01:18:34;;;;;;;144.40;68.55;;;;;;;19.45;54.01;101108.25;5050032;28;20021;-72
2023/05/15 01:21:06;;;;;;;145.95;65.18;;;;;;;19.44;54.52;101112.69;5048410;28;20048;-73
2023/05/15 01:23:56;;;;;;;140.02;62.13;;;;;;;19.43;54.24;101114.47;5050570;28;20094;-73
2023/05/15 01:26:59;;;;;;;144.07;62.03;;;;;;;19.42;54.11;101118.06;5048203;28;20754;-73
2023/05/15 01:29:59;;;;;;;143.30;62.65;;;;;;;19.42;54.78;101109.25;5049760;28;20048;-73
2023/05/15 01:32:40;;;;;;;140.27;61.97;;;;;;;19.40;54.62;101112.00;5011311;28;20057;-75
2023/05/15 01:35:11;;;;;;;144.60;63.58;;;;;;;19.39;54.38;101110.25;5025492;28;20021;-73
2023/05/15 01:37:40;;;;;;;142.10;62.33;;;;;;;19.40;54.78;101106.69;5022059;28;20032;-73
2023/05/15 01:40:06;;;;;;;140.00;62.03;;;;;;;19.39;55.28;101109.41;5032429;28;20105;-72
2023/05/15 01:42:33;;;;;;;149.40;62.97;;;;;;;19.38;55.07;101108.53;5015788;28;20029;-73
2023/05/15 01:45:04;;;;;;;143.15;61.70;;;;;;;19.37;54.97;101106.84;5031491;28;20029;-72
2023/05/15 01:47:46;;;;;;;139.52;60.80;;;;;;;19.37;54.96;101111.25;5030601;28;20040;-72
2023/05/15 01:50:14;;;;;;;137.85;60.03;;;;;;;19.36;55.20;101098.94;5028121;28;20025;-73
2023/05/15 01:52:51;;;;;;;144.45;63.75;;;;;;;19.36;55.26;101099.81;5031151;28;20017;-72
2023/05/15 01:55:18;;;;;;;140.80;62.65;;;;;;;19.35;54.80;101098.09;5016048;28;20016;-73
2023/05/15 01:57:46;;;;;;;156.15;64.47;;;;;;;19.36;55.18;101096.28;5030496;28;20091;-73
2023/05/15 02:00:12;;;;;;;142.30;61.85;;;;;;;19.35;54.83;101098.09;5031181;28;20091;-73
2023/05/15 02:02:37;;;;;;;142.20;61.78;;;;;;;19.35;54.98;101091.94;5032013;28;20505;-74
2023/05/15 02:05:04;;;;;;;147.55;63.35;;;;;;;19.34;54.70;101090.22;5031815;28;20028;-73
2023/05/15 02:07:30;;;;;;;143.82;62.40;;;;;;;19.34;54.77;101095.53;5032720;28;20055;-72
2023/05/15 02:09:56;;;;;;;140.20;62.67;;;;;;;19.34;54.95;101096.38;5033415;28;20453;-74
2023/05/15 02:12:22;;;;;;;148.27;64.45;;;;;;;19.34;55.26;101091.06;5033063;28;20413;-73
2023/05/15 02:14:48;;;;;;;140.40;62.30;;;;;;;19.34;54.92;101095.53;5016493;28;20021;-72
2023/05/15 02:17:14;;;;;;;142.82;62.47;;;;;;;19.34;55.24;101095.53;5050345;28;20432;-73
2023/05/15 02:19:39;;;;;;;142.15;61.50;;;;;;;19.33;55.28;101089.34;5033062;28;20100;-73
2023/05/15 02:22:04;;;;;;;137.45;60.90;;;;;;;19.33;55.13;101093.78;5031645;28;20029;-72
2023/05/15 02:24:30;;;;;;;144.38;61.00;;;;;;;19.32;54.93;101090.31;5022638;28;20033;-74
2023/05/15 02:27:04;;;;;;;142.15;60.72;;;;;;;19.33;55.46;101091.16;5030886;28;20041;-74
2023/05/15 02:29:32;;;;;;;141.55;63.13;;;;;;;19.32;55.43;101087.66;5015614;28;20067;-73
2023/05/15 02:32:20;;;;;;;146.60;63.05;;;;;;;19.31;55.71;101091.22;5023573;28;20068;-74
2023/05/15 02:34:57;;;;;;;145.07;62.55;;;;;;;19.30;55.65;101081.56;5014583;28;20020;-75
2023/05/15 02:37:27;;;;;;;147.23;66.55;;;;;;;19.30;55.98;101084.19;5002832;28;20570;-72
2023/05/15 02:39:56;;;;;;;152.68;69.03;;;;;;;19.30;56.04;101081.56;5031026;28;20028;-73
2023/05/15 02:42:22;;;;;;;144.63;67.25;;;;;;;19.29;56.31;101087.78;5032349;28;20033;-72
2023/05/15 02:44:47;;;;;;;148.27;69.63;;;;;;;19.28;55.67;101074.59;5034545;28;20444;-73
2023/05/15 02:47:13;;;;;;;146.48;70.00;;;;;;;19.29;55.81;101087.78;5029777;28;20028;-73
2023/05/15 02:49:38;;;;;;;176.80;73.97;;;;;;;19.29;55.46;101082.47;5010257;28;20021;-73
2023/05/15 02:52:04;;;;;;;152.13;69.25;;;;;;;19.29;55.34;101079.81;5032975;28;20382;-73
2023/05/15 02:54:29;;;;;;;143.65;66.47;;;;;;;19.29;55.47;101077.19;5035211;28;20031;-73
2023/05/15 02:56:55;;;;;;;157.18;71.35;;;;;;;19.28;55.19;101070.19;5018758;28;20090;-74
2023/05/15 02:59:20;;;;;;;149.95;73.68;;;;;;;19.29;55.62;101071.03;5047142;28;20299;-73
2023/05/15 03:01:46;;;;;;;157.73;74.20;;;;;;;19.29;55.15;101077.19;5049489;28;20471;-73
2023/05/15 03:04:15;;;;;;;163.60;71.88;;;;;;;19.27;55.20;101068.47;5021190;28;20044;-72
2023/05/15 03:06:40;;;;;;;151.75;69.97;;;;;;;19.28;55.51;101067.53;5053467;28;20029;-71
2023/05/15 03:09:06;;;;;;;166.98;73.20;;;;;;;19.28;55.20;101064.91;5017453;28;20032;-72
2023/05/15 03:11:31;;;;;;;155.27;68.35;;;;;;;19.26;55.48;101061.44;5016285;28;20062;-72
2023/05/15 03:13:58;;;;;;;150.45;68.43;;;;;;;19.26;55.67;101066.75;5050327;28;20099;-73
2023/05/15 03:16:24;;;;;;;149.18;71.50;;;;;;;19.27;55.91;101071.09;5029792;28;20102;-74
2023/05/15 03:18:49;;;;;;;161.40;69.78;;;;;;;19.25;55.16;101065.00;5052693;28;20111;-73
2023/05/15 03:21:16;;;;;;;138.88;62.20;;;;;;;19.25;54.95;101057.06;5034384;28;20107;-73
2023/05/15 03:23:41;;;;;;;149.50;63.28;;;;;;;19.27;55.45;101057.88;5035747;28;20021;-73
2023/05/15 03:26:07;;;;;;;140.73;62.13;;;;;;;19.26;55.29;101050.84;5024709;28;20486;-73
2023/05/15 03:28:32;;;;;;;135.20;62.22;;;;;;;19.27;54.87;101052.56;5032299;28;20464;-73
2023/05/15 03:30:57;;;;;;;146.43;61.78;;;;;;;19.28;55.02;101058.72;5033325;28;20521;-74
2023/05/15 03:33:22;;;;;;;145.05;63.08;;;;;;;19.27;55.46;101051.72;5053184;28;20040;-73
2023/05/15 03:35:50;;;;;;;144.15;61.40;;;;;;;19.28;55.97;101048.13;5052593;28;20044;-73
2023/05/15 03:38:15;;;;;;;142.05;61.22;;;;;;;19.27;56.06;101051.72;5035127;28;20029;-72
2023/05/15 03:40:40;;;;;;;140.13;62.30;;;;;;;19.27;55.55;101052.56;5035932;28;20076;-73
2023/05/15 03:43:05;;;;;;;140.57;62.33;;;;;;;19.26;55.88;101050.84;5049586;28;20025;-73
2023/05/15 03:45:35;;;;;;;139.20;61.15;;;;;;;19.27;56.01;101047.28;5016387;28;20498;-73
2023/05/15 03:48:01;;;;;;;150.25;62.38;;;;;;;19.27;56.15;101051.72;5029557;28;20029;-73
2023/05/15 03:50:26;;;;;;;137.50;60.50;;;;;;;19.27;55.94;101046.44;5036697;28;20486;-73
2023/05/15 03:52:51;;;;;;;143.73;63.75;;;;;;;19.27;55.90;101044.63;5036095;28;20029;-73
2023/05/15 03:55:17;;;;;;;137.80;60.63;;;;;;;19.27;56.05;101039.34;5018454;28;20032;-73
2023/05/15 03:57:42;;;;;;;137.07;62.45;;;;;;;19.29;55.84;101033.97;5030926;28;20075;-73
2023/05/15 04:00:09;;;;;;;152.60;62.40;;;;;;;19.28;56.02;101038.41;5010213;28;20115;-73
2023/05/15 04:02:35;;;;;;;142.38;61.75;;;;;;;19.29;56.43;101040.09;5033725;28;20029;-73
2023/05/15 04:05:02;;;;;;;155.02;64.20;;;;;;;19.30;56.10;101040.97;5052426;28;20032;-73
2023/05/15 04:07:27;;;;;;;140.07;62.10;;;;;;;19.30;56.22;101033.88;5044156;28;20024;-73
2023/05/15 04:09:52;;;;;;;140.43;62.28;;;;;;;19.31;56.27;101026.81;5043764;28;20465;-73
2023/05/15 04:12:18;;;;;;;138.57;61.38;;;;;;;19.32;55.72;101036.44;5025079;28;20078;-73
2023/05/15 04:14:43;;;;;;;136.15;61.55;;;;;;;19.32;56.16;101032.03;5031416;28;20029;-73
2023/05/15 04:17:08;;;;;;;152.07;64.03;;;;;;;19.33;55.75;101030.22;5043652;28;20025;-73
2023/05/15 04:19:34;;;;;;;158.82;64.38;;;;;;;19.33;56.02;101031.09;5031685;28;20017;-73
2023/05/15 04:21:59;;;;;;;153.25;63.05;;;;;;;19.35;56.02;101036.34;5032980;28;20056;-73
2023/05/15 04:24:24;;;;;;;147.38;63.83;;;;;;;19.35;55.74;101029.22;5051792;28;20029;-73
2023/05/15 04:26:50;;;;;;;152.18;62.65;;;;;;;19.38;55.69;101039.66;5033410;28;20032;-73
2023/05/15 04:29:16;;;;;;;149.43;64.00;;;;;;;19.41;55.76;101038.66;5033939;28;20036;-73
2023/05/15 04:31:41;;;;;;;147.45;63.55;;;;;;;19.43;55.56;101034.16;5014365;28;20478;-73
2023/05/15 04:34:06;;;;;;;156.80;64.60;;;;;;;19.43;55.80;101032.38;5030431;28;20477;-73
2023/05/15 04:36:32;;;;;;;136.80;61.70;;;;;;;19.43;56.21;101024.44;5050494;28;20444;-73
2023/05/15 04:38:57;;;;;;;156.52;64.40;;;;;;;19.45;56.49;101028.81;5033298;28;20039;-73
2023/05/15 04:41:23;;;;;;;140.50;62.17;;;;;;;19.45;56.37;101028.81;5031437;28;20117;-73
2023/05/15 04:43:48;;;;;;;147.45;63.45;;;;;;;19.46;55.89;101025.22;5031735;28;20024;-72
2023/05/15 04:46:13;;;;;;;144.52;62.08;;;;;;;19.47;56.09;101029.56;5029863;28;20140;-73
2023/05/15 04:48:39;;;;;;;140.77;61.42;;;;;;;19.48;56.13;101023.34;5036504;28;20074;-73
2023/05/15 04:51:04;;;;;;;155.07;64.20;;;;;;;19.50;56.03;101021.50;5016371;28;20048;-73
2023/05/15 04:53:29;;;;;;;143.23;61.63;;;;;;;19.51;56.18;101024.06;5049295;28;20139;-72
2023/05/15 04:55:55;;;;;;;140.95;61.80;;;;;;;19.55;57.11;101015.03;5047683;28;20032;-78
2023/05/15 04:58:20;;;;;;;145.05;62.47;;;;;;;19.56;56.31;101015.88;5034997;28;20025;-73
2023/05/15 05:00:45;;;;;;;148.25;62.78;;;;;;;19.58;56.00;101024.63;5008508;28;20025;-77
2023/05/15 05:03:11;;;;;;;140.25;62.83;;;;;;;19.60;54.98;101017.44;5027836;28;20035;-74
2023/05/15 05:05:36;;;;;;;141.57;62.75;;;;;;;19.65;55.04;101018.09;5051047;28;20028;-74
2023/05/15 05:08:01;;;;;;;139.57;62.35;;;;;;;19.68;55.20;101020.56;5038306;28;20033;-73
2023/05/15 05:10:27;;;;;;;139.30;61.70;;;;;;;19.70;55.29;101023.16;5017699;28;20021;-73
2023/05/15 05:12:52;;;;;;;143.20;61.83;;;;;;;19.70;54.69;101016.06;5051638;28;20060;-73
2023/05/15 05:15:17;;;;;;;148.43;62.17;;;;;;;19.73;54.71;101020.38;5028304;28;20049;-72
2023/05/15 05:17:43;;;;;;;141.43;61.70;;;;;;;19.74;54.10;101019.41;5038998;28;20022;-72
2023/05/15 05:20:09;;;;;;;147.63;62.67;;;;;;;19.74;54.56;101020.28;5043060;28;20032;-72
2023/05/15 05:22:34;;;;;;;144.35;63.78;;;;;;;19.77;54.37;101021.94;5043769;28;20029;-73
2023/05/15 05:25:00;;;;;;;153.77;65.25;;;;;;;19.76;54.68;101018.41;5024163;28;20022;-73
2023/05/15 05:27:26;;;;;;;143.98;62.45;;;;;;;19.80;54.21;101024.44;5023725;28;20064;-73
2023/05/15 05:29:53;;;;;;;142.88;63.63;;;;;;;19.83;53.57;101029.59;5031973;28;20029;-73
2023/05/15 05:32:18;;;;;;;145.48;63.10;;;;;;;19.85;53.79;101034.81;5049964;28;20036;-72
2023/05/15 05:34:43;;;;;;;139.07;61.70;;;;;;;19.88;53.43;101024.06;5051097;28;20478;-73
2023/05/15 05:37:09;;;;;;;144.57;62.17;;;;;;;19.90;53.11;101024.84;5007405;28;20035;-72
2023/05/15 05:39:34;;;;;;;140.45;61.15;;;;;;;19.94;53.02;101029.06;5047841;28;20075;-72
2023/05/15 05:41:59;;;;;;;147.88;62.10;;;;;;;19.96;53.31;101015.72;5053236;28;20032;-72
2023/05/15 05:44:25;;;;;;;148.10;64.38;;;;;;;19.98;53.10;101016.50;5035668;28;20040;-73
2023/05/15 05:46:51;;;;;;;139.65;62.67;;;;;;;19.99;52.82;101013.78;5053493;28;20020;-72
2023/05/15 05:49:16;;;;;;;138.32;61.78;;;;;;;20.00;52.34;101010.22;5052908;28;20024;-73
2023/05/15 05:51:44;;;;;;;137.88;61.90;;;;;;;20.02;53.15;101018.91;5052396;28;20500;-74
2023/05/15 05:54:09;;;;;;;141.35;62.15;;;;;;;20.03;52.99;101009.19;5017613;28;20025;-73
2023/05/15 05:56:35;;;;;;;137.88;61.60;;;;;;;20.05;52.85;101013.47;5051699;28;20510;-73
2023/05/15 05:59:00;;;;;;;151.13;64.50;;;;;;;20.06;52.78;101012.53;5032291;28;20490;-73
2023/05/15 06:01:26;;;;;;;145.00;63.05;;;;;;;20.07;52.60;101008.94;5024222;28;20645;-74
2023/05/15 06:03:51;;;;;;;135.88;61.20;;;;;;;20.08;52.20;101013.31;5014432;28;20231;-74
2023/05/15 06:06:17;;;;;;;140.85;61.65;;;;;;;20.12;52.12;101008.69;5050211;28;20101;-74
2023/05/15 06:08:42;;;;;;;134.82;60.25;;;;;;;20.18;51.53;101012.81;5022809;28;20049;-73
2023/05/15 06:11:07;;;;;;;140.02;60.72;;;;;;;20.43;50.58;101000.00;5052547;28;20067;-73
2023/05/15 06:13:33;;;;;;;137.93;61.15;;;;;;;20.81;49.38;100998.09;5027832;28;20021;-73
2023/05/15 06:15:58;;;;;;;137.90;62.22;;;;;;;21.15;47.92;100994.41;5042003;28;20031;-73
2023/05/15 06:18:23;;;;;;;142.88;61.85;;;;;;;21.44;47.31;100991.91;5049902;28;20017;-73
2023/05/15 06:20:49;;;;;;;141.23;61.47;;;;;;;21.67;46.53;100992.41;5051554;28;20474;-73
2023/05/15 06:23:14;;;;;;;142.65;62.35;;;;;;;21.88;45.91;100992.94;5033870;28;20021;-73
2023/05/15 06:25:39;;;;;;;135.00;61.58;;;;;;;22.04;45.20;100993.75;5033236;28;20209;-73
2023/05/15 06:28:05;;;;;;;137.18;60.78;;;;;;;22.18;44.60;100992.06;5013419;28;20112;-73
2023/05/15 06:30:30;;;;;;;148.80;62.45;;;;;;;22.32;43.83;100985.91;5011415;28;20020;-74
2023/05/15 06:32:55;;;;;;;141.05;63.72;;;;;;;22.48;44.41;100991.16;5008298;28;20030;-74
2023/05/15 06:35:22;;;;;;;144.05;62.28;;;;;;;22.56;44.54;100988.88;5025220;28;20063;-74
2023/05/15 06:37:49;;;;;;;146.68;63.35;;;;;;;22.65;43.89;100988.31;5019830;28;20029;-73
2023/05/15 06:40:14;;;;;;;143.65;63.97;;;;;;;22.74;43.58;100993.06;5031466;28;20099;-73
2023/05/15 06:42:40;;;;;;;151.15;71.60;;;;;;;22.84;43.29;100987.16;5048364;28;20108;-73
2023/05/15 06:45:05;;;;;;;139.23;61.38;;;;;;;22.91;43.06;100983.16;5021308;28;20128;-74
2023/05/15 06:47:31;;;;;;;144.60;62.85;;;;;;;22.99;43.06;100980.88;5025925;28;20454;-73
2023/05/15 06:49:56;;;;;;;140.32;64.85;;;;;;;23.03;42.67;100982.38;5030589;28;20118;-73
2023/05/15 06:52:22;;;;;;;145.18;63.95;;;;;;;23.12;42.76;100979.16;5032590;28;20418;-73
2023/05/15 06:54:47;;;;;;;140.52;61.80;;;;;;;23.22;42.81;100970.53;5051288;28;20486;-75
2023/05/15 06:57:12;;;;;;;144.48;62.20;;;;;;;23.28;42.50;100973.66;5033344;28;20451;-74
2023/05/15 06:59:38;;;;;;;145.05;62.92;;;;;;;23.40;41.59;100972.00;5033503;28;20032;-74
2023/05/15 07:02:03;;;;;;;144.40;64.72;;;;;;;23.45;42.35;100967.25;5060960;22;20482;-72
2023/05/15 07:04:29;;;;;;;158.27;66.32;;;;;;;23.53;42.04;100968.53;5040418;28;20025;-73
2023/05/15 07:06:55;;;;;;;148.73;65.07;;;;;;;23.62;41.82;100965.25;5039636;28;20408;-73
2023/05/15 07:09:20;;;;;;;143.48;63.88;;;;;;;23.69;41.73;100958.53;5043528;28;20036;-72
2023/05/15 07:11:46;;;;;;;141.75;62.95;;;;;;;23.82;41.18;100968.38;5039726;28;20036;-73
2023/05/15 07:14:11;;;;;;;158.05;65.22;;;;;;;23.85;41.16;100963.69;5026428;28;20475;-75
2023/05/15 07:16:36;;;;;;;142.82;63.50;;;;;;;23.84;40.71;100958.47;5007479;28;20030;-74
2023/05/15 07:19:02;;;;;;;138.18;61.75;;;;;;;23.82;41.12;100963.03;5019796;28;20029;-73
2023/05/15 07:21:27;;;;;;;162.35;65.70;;;;;;;23.83;40.53;100954.09;5022200;28;20044;-74
2023/05/15 07:23:52;;;;;;;155.27;67.60;;;;;;;23.76;41.54;100946.53;5026497;28;20572;-75
2023/05/15 07:26:18;;;;;;;142.88;64.35;;;;;;;23.73;41.07;100944.03;5031229;28;20098;-73
2023/05/15 07:28:43;;;;;;;145.07;64.15;;;;;;;23.73;41.49;100949.38;5031419;28;20041;-73
2023/05/15 07:31:08;;;;;;;141.50;63.08;;;;;;;23.75;42.14;100947.47;5030633;28;20120;-73
2023/05/15 07:33:34;;;;;;;140.35;64.18;;;;;;;24.07;41.50;100949.78;5029184;28;20048;-75
2023/05/15 07:35:59;;;;;;;134.35;62.28;;;;;;;24.19;40.42;100944.56;5027525;28;20026;-76
2023/05/15 07:38:25;;;;;;;143.77;64.60;;;;;;;24.17;39.62;100941.13;5028720;28;20036;-80
2023/05/15 07:40:50;;;;;;;143.02;64.53;;;;;;;24.18;39.75;100937.50;5021591;28;20402;-77
2023/05/15 07:43:16;;;;;;;142.95;63.63;;;;;;;24.26;39.57;100930.66;5029095;28;20025;-75
2023/05/15 07:45:41;;;;;;;141.77;63.75;;;;;;;24.29;39.35;100935.78;5024406;28;20475;-75
2023/05/15 07:48:16;;;;;;;146.27;65.00;;;;;;;24.30;38.70;100931.31;5024064;28;20710;-81
2023/05/15 07:50:45;;;;;;;154.82;65.13;;;;;;;24.32;37.99;100934.72;5025040;28;20394;-79
2023/05/15 07:53:11;;;;;;;134.75;63.28;;;;;;;24.45;37.02;100935.56;5025141;28;20304;-76
2023/05/15 07:55:36;;;;;;;139.98;64.10;;;;;;;24.42;37.29;100925.09;5004873;28;20022;-77
2023/05/15 07:58:02;;;;;;;147.68;63.78;;;;;;;24.39;37.55;100922.66;5009317;28;20111;-79
2023/05/15 08:00:27;;;;;;;142.85;63.75;;;;;;;24.41;36.96;100923.38;5008816;28;20029;-79
2023/05/15 08:02:52;;;;;;;156.05;67.07;;;;;;;24.40;37.95;100927.00;5019671;28;20030;-78
2023/05/15 08:05:18;;;;;;;136.70;62.17;;;;;;;24.41;37.23;100923.38;5030727;28;20083;-77
2023/05/15 08:07:43;;;;;;;141.38;63.53;;;;;;;24.42;37.46;100914.41;5033243;28;20026;-78
2023/05/15 08:10:09;;;;;;;147.07;65.20;;;;;;;24.46;37.78;100925.75;5026377;28;20021;-78
2023/05/15 08:12:35;;;;;;;139.95;63.10;;;;;;;24.45;37.81;100926.69;5011507;28;20025;-78
2023/05/15 08:15:00;;;;;;;142.25;64.70;;;;;;;24.51;37.46;100920.06;5022552;28;20025;-78
2023/05/15 08:17:26;;;;;;;145.85;64.38;;;;;;;24.48;37.05;100916.63;5009264;28;20109;-77
2023/05/15 08:19:51;;;;;;;168.98;66.50;;;;;;;24.51;35.69;100912.06;5008665;28;20398;-78
2023/05/15 08:22:17;;;;;;;152.98;66.90;;;;;;;24.50;36.62;100905.00;5011454;28;20021;-77
2023/05/15 08:24:43;;;;;;;142.30;63.30;;;;;;;24.57;35.00;100900.91;5020671;28;20113;-77
2023/05/15 08:27:08;;;;;;;148.02;64.10;;;;;;;24.51;36.70;100907.56;5004638;28;20036;-77
2023/05/15 08:29:34;;;;;;;144.80;65.90;;;;;;;24.52;35.96;100903.94;5025520;28;20478;-74
2023/05/15 08:32:00;;;;;;;148.68;66.32;;;;;;;24.51;36.63;100901.38;5015085;28;20105;-74
2023/05/15 08:34:26;;;;;;;150.15;67.35;;;;;;;24.51;35.93;100888.03;5025718;28;20530;-76
2023/05/15 08:36:51;;;;;;;139.75;65.90;;;;;;;24.46;37.09;100889.22;5007279;28;20556;-78
2023/05/15 08:39:17;;;;;;;148.82;65.13;;;;;;;24.39;36.28;100897.75;5026719;28;20022;-75
2023/05/15 08:42:08;;;;;;;156.93;68.05;;;;;;;24.36;35.07;100884.63;5023875;28;20390;-78
2023/05/15 08:44:33;;;;;;;142.95;65.35;;;;;;;24.33;35.74;100893.72;5025380;28;20021;-80
2023/05/15 08:46:59;;;;;;;150.85;67.55;;;;;;;24.21;36.61;100889.25;5003399;28;20028;-76
2023/05/15 08:50:03;;;;;;;148.40;65.47;;;;;;;24.04;37.09;100888.63;5030640;28;20026;-76
2023/05/15 08:52:29;;;;;;;152.45;67.07;;;;;;;23.98;37.85;100889.03;5024212;28;20052;-75
2023/05/15 08:54:55;;;;;;;152.43;67.07;;;;;;;23.91;38.10;100893.09;5026999;28;20041;-76
2023/05/15 08:57:20;;;;;;;151.57;67.03;;;;;;;23.88;38.33;100888.84;5026384;28;20030;-76
2023/05/15 08:59:45;;;;;;;141.35;65.63;;;;;;;23.85;38.85;100889.03;5027981;28;20297;-76
2023/05/15 09:02:11;;;;;;;153.73;65.25;;;;;;;23.86;38.25;100885.41;5021066;28;20021;-76
2023/05/15 09:04:36;;;;;;;143.95;61.83;;;;;;;23.82;38.06;100883.91;5023408;28;20033;-76
2023/05/15 09:07:02;;;;;;;132.40;60.72;;;;;;;23.81;38.52;100887.53;5014653;28;20454;-76
2023/05/15 09:09:29;;;;;;;149.13;64.85;;;;;;;23.79;38.59;100879.63;5031788;28;20087;-76
2023/05/15 09:11:55;;;;;;;140.20;61.63;;;;;;;23.79;39.28;100890.31;5031768;28;20594;-76
2023/05/15 09:14:20;;;;;;;156.73;64.63;;;;;;;23.75;39.43;100886.16;5022246;28;20092;-76
2023/05/15 09:16:48;;;;;;;143.73;63.60;;;;;;;23.73;37.07;100877.38;5018385;28;20482;-77
2023/05/15 09:19:14;;;;;;;147.63;63.70;;;;;;;23.52;35.88;100881.50;5028869;28;20087;-77
2023/05/15 09:21:39;;;;;;;146.13;63.88;;;;;;;23.37;36.28;100873.63;5037592;28;20029;-75
2023/05/15 09:24:14;;;;;;;145.63;64.18;;;;;;;23.24;35.86;100868.22;5029075;28;20453;-75
2023/05/15 09:26:41;;;;;;;144.45;63.92;;;;;;;23.12;35.61;100864.59;5028018;28;20021;-76
2023/05/15 09:29:06;;;;;;;146.20;64.13;;;;;;;23.05;36.86;100868.56;5024021;28;20025;-75
2023/05/15 09:31:32;;;;;;;147.63;63.55;;;;;;;23.01;36.73;100869.72;5030289;28;20029;-75
2023/05/15 09:34:00;;;;;;;141.82;64.68;;;;;;;22.98;36.44;100867.28;5027639;28;20025;-76
2023/05/15 09:36:25;;;;;;;158.05;65.93;;;;;;;22.94;36.57;100863.13;5023224;28;20475;-75
2023/05/15 09:38:57;;;;;;;142.70;63.53;;;;;;;22.93;36.98;100864.06;5032830;28;20029;-78
2023/05/15 09:41:26;;;;;;;144.80;64.60;;;;;;;22.92;37.30;100862.38;5031766;28;20021;-77
2023/05/15 09:43:53;;;;;;;146.20;65.15;;;;;;;22.91;36.78;100858.00;5028872;28;20359;-79
2023/05/15 09:46:18;;;;;;;143.88;63.78;;;;;;;22.88;36.85;100860.88;5040009;28;20045;-79
2023/05/15 09:48:43;;;;;;;142.95;64.00;;;;;;;22.85;36.83;100861.91;5021482;28;20029;-77
2023/05/15 09:51:17;;;;;;;160.38;67.68;;;;;;;22.76;36.03;100859.84;4996659;28;20033;-75
2023/05/15 09:53:47;;;;;;;157.18;65.03;;;;;;;22.73;36.78;100857.41;5004905;28;20022;-75
2023/05/15 09:56:13;;;;;;;161.43;65.63;;;;;;;22.78;36.88;100853.47;5002987;28;20045;-77
2023/05/15 09:58:51;;;;;;;157.02;66.07;;;;;;;22.65;36.76;100857.88;5019319;28;20029;-77
2023/05/15 10:01:19;;;;;;;154.60;66.35;;;;;;;22.55;36.56;100854.97;5023788;28;20104;-77
2023/05/15 10:03:56;;;;;;;141.70;64.38;;;;;;;22.43;36.06;100848.59;5001486;28;20025;-77
2023/05/15 10:06:21;;;;;;;163.65;65.63;;;;;;;22.33;36.24;100852.75;5003764;28;20439;-75
2023/05/15 10:08:51;;;;;;;138.38;62.42;;;;;;;22.32;36.45;100848.41;5023145;28;20120;-75
2023/05/15 10:11:17;;;;;;;153.80;66.22;;;;;;;22.25;36.45;100841.75;5002737;28;20021;-76
2023/05/15 10:13:42;;;;;;;143.60;63.85;;;;;;;22.22;35.40;100842.81;5025336;28;20664;-77
2023/05/15 10:16:08;;;;;;;154.77;65.70;;;;;;;22.15;35.09;100830.00;5025603;28;20422;-75
2023/05/15 10:18:34;;;;;;;141.40;62.47;;;;;;;22.08;35.40;100825.03;5020711;28;20487;-77
2023/05/15 10:21:03;;;;;;;148.25;64.45;;;;;;;22.07;34.77;100835.78;5029618;28;20026;-77
2023/05/15 10:23:30;;;;;;;140.43;62.85;;;;;;;22.04;35.00;100834.16;5029680;28;20402;-76
2023/05/15 10:26:02;;;;;;;149.88;69.05;;;;;;;22.01;34.88;100834.38;5027118;28;20037;-76
2023/05/15 10:28:27;;;;;;;162.93;67.18;;;;;;;21.99;35.11;100827.44;5018648;28;20033;-77
2023/05/15 10:30:54;;;;;;;150.02;64.88;;;;;;;21.99;35.91;100836.28;5018126;28;20026;-77
2023/05/15 10:33:19;;;;;;;143.77;64.75;;;;;;;21.97;36.60;100832.84;5028029;28;20025;-76
2023/05/15 10:35:45;;;;;;;140.20;64.22;;;;;;;21.98;36.81;100823.94;5023572;28;20101;-75
2023/05/15 10:38:11;;;;;;;161.75;66.80;;;;;;;21.98;36.70;100818.59;4998676;28;20024;-76
2023/05/15 10:40:38;;;;;;;147.10;63.88;;;;;;;21.95;37.18;100824.09;5016771;28;20030;-76
2023/05/15 10:43:04;;;;;;;143.50;64.97;;;;;;;21.93;37.37;100821.53;5014228;28;20107;-77
2023/05/15 10:45:30;;;;;;;154.60;65.28;;;;;;;21.87;37.16;100829.03;5005246;28;20025;-77
2023/05/15 10:47:56;;;;;;;146.18;65.20;;;;;;;21.78;37.31;100812.69;5012446;28;20079;-77
2023/05/15 10:50:21;;;;;;;145.43;65.53;;;;;;;21.72;35.59;100813.09;5017520;28;20049;-77
2023/05/15 10:52:50;;;;;;;142.82;65.35;;;;;;;21.67;35.51;100817.00;5028668;28;20120;-77
2023/05/15 10:55:16;;;;;;;142.38;64.25;;;;;;;21.66;36.63;100816.13;5004605;28;20382;-76
2023/05/15 10:57:44;;;;;;;147.88;64.75;;;;;;;21.66;37.23;100808.13;5003473;28;20021;-76
2023/05/15 11:00:22;;;;;;;140.38;63.75;;;;;;;21.66;37.11;100801.97;5008660;28;20026;-77